createdAt,value
2023-02-16T00:00:48.694Z,5.00
2023-02-16T00:03:22.465Z,4.90
2023-02-16T00:05:51.115Z,4.90
2023-02-16T00:08:18.108Z,4.80
2023-02-16T00:11:04.936Z,4.80
2023-02-16T00:13:53.061Z,4.70
2023-02-16T00:16:24.879Z,4.70
2023-02-16T00:18:52.898Z,4.70
2023-02-16T00:21:21.240Z,4.60
2023-02-16T00:23:48.905Z,4.60
2023-02-16T00:26:25.625Z,4.50
2023-02-16T00:28:58.651Z,4.50
2023-02-16T00:31:29.211Z,4.50
2023-02-16T00:33:56.827Z,4.50
2023-02-16T00:36:24.295Z,4.40
2023-02-16T00:38:52.033Z,4.40
2023-02-16T00:41:41.463Z,4.30
2023-02-16T00:44:30.942Z,4.30
2023-02-16T00:47:02.420Z,4.30
2023-02-16T00:49:29.497Z,4.30
2023-02-16T00:51:57.113Z,4.30
2023-02-16T00:54:24.457Z,4.20
2023-02-16T00:56:52.218Z,4.20
2023-02-16T00:59:22.524Z,4.20
2023-02-16T01:01:50.326Z,4.10
2023-02-16T01:04:23.872Z,4.10
2023-02-16T01:07:09.642Z,4.20
2023-02-16T01:09:55.450Z,4.20
2023-02-16T01:12:22.845Z,4.10
2023-02-16T01:14:54.833Z,4.00
2023-02-16T01:17:24.462Z,4.00
2023-02-16T01:19:51.498Z,4.00
2023-02-16T01:22:18.658Z,3.90
2023-02-16T01:24:45.965Z,3.90
2023-02-16T01:27:14.375Z,3.90
2023-02-16T01:29:41.671Z,4.00
2023-02-16T01:32:12.879Z,4.00
2023-02-16T01:34:40.103Z,4.10
2023-02-16T01:37:14.695Z,4.10
2023-02-16T01:39:42.081Z,4.00
2023-02-16T01:42:45.077Z,4.10
2023-02-16T01:45:18.921Z,4.10
2023-02-16T01:47:56.105Z,4.10
2023-02-16T01:50:28.833Z,4.10
2023-02-16T01:53:13.384Z,4.10
2023-02-16T01:55:47.276Z,4.10
2023-02-16T01:58:45.767Z,4.20
2023-02-16T02:01:52.878Z,4.20
2023-02-16T02:04:48.410Z,4.20
2023-02-16T02:07:31.871Z,4.20
2023-02-16T02:10:15.642Z,4.20
2023-02-16T02:13:40.984Z,4.20
2023-02-16T02:16:11.687Z,4.20
2023-02-16T02:18:39.240Z,4.10
2023-02-16T02:21:55.864Z,4.10
2023-02-16T02:24:49.014Z,4.10
2023-02-16T02:27:57.609Z,4.10
2023-02-16T02:30:48.358Z,4.20
2023-02-16T02:33:37.575Z,4.10
2023-02-16T02:36:34.249Z,4.10
2023-02-16T02:39:25.322Z,4.10
2023-02-16T02:42:06.965Z,4.00
2023-02-16T02:45:02.276Z,4.00
2023-02-16T02:47:43.054Z,4.00
2023-02-16T02:51:07.274Z,4.00
2023-02-16T02:53:50.283Z,4.00
2023-02-16T02:56:37.026Z,4.00
2023-02-16T02:59:26.524Z,4.00
2023-02-16T03:02:00.812Z,4.00
2023-02-16T03:04:31.224Z,4.00
2023-02-16T03:07:01.203Z,4.00
2023-02-16T03:09:28.704Z,3.90
2023-02-16T03:12:15.894Z,4.00
2023-02-16T03:14:51.049Z,4.00
2023-02-16T03:17:43.710Z,4.00
2023-02-16T03:20:33.692Z,4.00
2023-02-16T03:23:22.389Z,4.00
2023-02-16T03:26:10.998Z,4.00
2023-02-16T03:29:01.907Z,3.90
2023-02-16T03:31:35.274Z,3.90
2023-02-16T03:34:03.066Z,4.00
2023-02-16T03:36:34.212Z,3.90
2023-02-16T03:39:02.317Z,3.90
2023-02-16T03:41:34.483Z,3.90
2023-02-16T03:44:01.689Z,3.80
2023-02-16T03:46:28.864Z,3.90
2023-02-16T03:48:55.900Z,3.80
2023-02-16T03:51:23.082Z,3.80
2023-02-16T03:53:50.348Z,3.90
2023-02-16T03:56:17.462Z,3.90
2023-02-16T03:58:44.508Z,3.90
2023-02-16T04:01:12.086Z,4.00
2023-02-16T04:03:39.158Z,4.00
2023-02-16T04:06:06.848Z,4.00
2023-02-16T04:08:34.446Z,4.10
2023-02-16T04:11:21.901Z,4.10
2023-02-16T04:13:49.107Z,4.10
2023-02-16T04:16:16.175Z,4.20
2023-02-16T04:18:43.408Z,4.20
2023-02-16T04:21:10.485Z,4.30
2023-02-16T04:23:37.869Z,4.20
2023-02-16T04:26:05.495Z,4.30
2023-02-16T04:28:32.500Z,4.30
2023-02-16T04:30:59.798Z,4.30
2023-02-16T04:33:27.167Z,4.30
2023-02-16T04:35:54.263Z,4.30
2023-02-16T04:38:21.469Z,4.30
2023-02-16T04:40:48.593Z,4.20
2023-02-16T04:43:15.758Z,4.30
2023-02-16T04:45:43.151Z,4.30
2023-02-16T04:48:10.402Z,4.20
2023-02-16T04:50:37.581Z,4.30
2023-02-16T04:53:04.747Z,4.30
2023-02-16T04:55:32.000Z,4.30
2023-02-16T04:57:59.238Z,4.30
2023-02-16T05:00:26.588Z,4.50
2023-02-16T05:02:53.988Z,4.40
2023-02-16T05:05:21.033Z,4.40
2023-02-16T05:07:48.597Z,4.50
2023-02-16T05:10:15.592Z,4.60
2023-02-16T05:13:01.503Z,4.60
2023-02-16T05:15:28.744Z,4.60
2023-02-16T05:17:55.696Z,4.70
2023-02-16T05:20:43.054Z,4.70
2023-02-16T05:23:10.082Z,4.70
2023-02-16T05:25:37.301Z,4.70
2023-02-16T05:28:04.723Z,4.80
2023-02-16T05:30:32.359Z,4.70
2023-02-16T05:32:59.691Z,4.80
2023-02-16T05:35:26.884Z,4.80
2023-02-16T05:37:53.945Z,4.80
2023-02-16T05:40:21.223Z,4.90
2023-02-16T05:42:52.440Z,4.80
2023-02-16T05:45:19.766Z,4.90
2023-02-16T05:47:47.352Z,4.90
2023-02-16T05:50:14.755Z,4.90
2023-02-16T05:52:41.844Z,5.00
2023-02-16T05:55:08.925Z,5.00
2023-02-16T05:57:35.977Z,5.00
2023-02-16T06:00:05.251Z,5.00
2023-02-16T06:02:32.270Z,5.00
2023-02-16T06:04:59.406Z,5.00
2023-02-16T06:07:26.591Z,5.00
2023-02-16T06:09:53.582Z,5.00
2023-02-16T06:12:20.538Z,5.10
2023-02-16T06:14:47.770Z,5.10
2023-02-16T06:17:15.144Z,5.10
2023-02-16T06:19:42.115Z,5.10
2023-02-16T06:22:09.466Z,5.20
2023-02-16T06:24:37.237Z,5.10
2023-02-16T06:27:04.716Z,5.20
2023-02-16T06:29:32.118Z,5.20
2023-02-16T06:31:59.465Z,5.20
2023-02-16T06:34:26.502Z,5.20
2023-02-16T06:36:53.697Z,5.20
2023-02-16T06:39:20.981Z,5.20
2023-02-16T06:41:48.338Z,5.30
2023-02-16T06:44:16.734Z,5.20
2023-02-16T06:46:46.756Z,5.30
2023-02-16T06:49:20.620Z,5.30
2023-02-16T06:51:49.784Z,5.40
2023-02-16T06:54:18.222Z,5.40
2023-02-16T06:56:45.666Z,5.40
2023-02-16T06:59:13.565Z,5.40
2023-02-16T07:01:45.500Z,5.50
2023-02-16T07:04:18.253Z,5.50
2023-02-16T07:06:45.354Z,5.40
2023-02-16T07:09:13.114Z,5.40
2023-02-16T07:11:40.631Z,5.40
2023-02-16T07:14:07.828Z,5.40
2023-02-16T07:16:35.137Z,5.50
2023-02-16T07:19:02.309Z,5.50
2023-02-16T07:21:29.511Z,5.50
2023-02-16T07:23:56.623Z,5.50
2023-02-16T07:26:23.690Z,5.60
2023-02-16T07:28:51.005Z,5.60
2023-02-16T07:31:18.404Z,5.70
2023-02-16T07:33:45.733Z,5.80
2023-02-16T07:36:13.669Z,5.80
2023-02-16T07:38:43.801Z,5.90
2023-02-16T07:41:12.093Z,5.90
2023-02-16T07:43:39.564Z,5.90
2023-02-16T07:46:06.980Z,6.00
2023-02-16T07:48:34.592Z,6.00
2023-02-16T07:51:02.782Z,6.00
2023-02-16T07:53:30.432Z,6.10
2023-02-16T07:55:57.841Z,6.20
2023-02-16T07:58:27.905Z,6.20
2023-02-16T08:01:11.036Z,6.30
2023-02-16T08:03:39.320Z,6.30
2023-02-16T08:06:07.736Z,6.30
2023-02-16T08:08:35.869Z,6.30
2023-02-16T08:11:21.044Z,6.30
2023-02-16T08:13:49.499Z,6.30
2023-02-16T08:16:23.688Z,6.30
2023-02-16T08:18:52.448Z,6.30
2023-02-16T08:21:23.636Z,6.40
2023-02-16T08:24:03.997Z,6.40
2023-02-16T08:26:40.008Z,6.50
2023-02-16T08:29:10.155Z,6.50
2023-02-16T08:31:39.342Z,6.50
2023-02-16T08:34:07.356Z,6.50
2023-02-16T08:36:38.289Z,6.60
2023-02-16T08:39:12.117Z,6.70
2023-02-16T08:41:39.579Z,6.70
2023-02-16T08:44:08.458Z,6.80
2023-02-16T08:46:40.049Z,6.90
2023-02-16T08:49:09.208Z,6.90
2023-02-16T08:51:46.575Z,7.00
2023-02-16T08:54:19.517Z,7.00
2023-02-16T08:56:48.216Z,7.00
2023-02-16T08:59:17.537Z,7.00
2023-02-16T09:01:45.134Z,7.00
2023-02-16T09:04:14.108Z,7.00
2023-02-16T09:06:45.136Z,7.00
2023-02-16T09:09:13.230Z,7.00
2023-02-16T09:11:41.104Z,7.00
2023-02-16T09:14:09.382Z,7.00
2023-02-16T09:16:39.821Z,7.00
2023-02-16T09:19:07.414Z,7.10
2023-02-16T09:21:34.732Z,7.10
2023-02-16T09:24:04.546Z,7.20
2023-02-16T09:26:35.553Z,7.20
2023-02-16T09:29:03.875Z,7.20
2023-02-16T09:31:35.287Z,7.30
2023-02-16T09:34:20.939Z,7.30
2023-02-16T09:36:49.766Z,7.30
2023-02-16T09:39:19.251Z,7.40
2023-02-16T09:42:24.616Z,7.50
2023-02-16T09:45:15.594Z,7.50
2023-02-16T09:47:46.379Z,7.50
2023-02-16T09:50:50.267Z,7.60
2023-02-16T09:53:24.418Z,7.60
2023-02-16T09:56:20.153Z,7.60
2023-02-16T09:58:56.312Z,7.60
2023-02-16T10:01:41.899Z,7.70
2023-02-16T10:04:31.370Z,7.70
2023-02-16T10:07:40.742Z,7.80
2023-02-16T10:10:10.951Z,7.70
2023-02-16T10:12:46.866Z,7.70
2023-02-16T10:15:22.365Z,7.70
2023-02-16T10:18:20.435Z,7.70
2023-02-16T10:20:52.356Z,7.70
2023-02-16T10:23:34.777Z,7.70
2023-02-16T10:26:16.495Z,7.60
2023-02-16T10:28:51.329Z,7.70
2023-02-16T10:31:43.827Z,7.70
2023-02-16T10:34:34.173Z,7.70
2023-02-16T10:37:31.735Z,7.80
2023-02-16T10:40:27.876Z,7.80
2023-02-16T10:43:24.457Z,8.00
2023-02-16T10:46:01.821Z,8.00
2023-02-16T10:48:29.291Z,8.10
2023-02-16T10:51:07.811Z,8.20
2023-02-16T10:53:52.908Z,8.20
2023-02-16T10:56:38.666Z,8.30
2023-02-16T10:59:18.367Z,8.30
2023-02-16T11:01:59.132Z,8.20
2023-02-16T11:04:44.713Z,8.20
2023-02-16T11:07:16.002Z,8.30
2023-02-16T11:09:46.630Z,8.20
2023-02-16T11:12:38.413Z,8.10
2023-02-16T11:15:23.975Z,8.10
2023-02-16T11:18:05.242Z,8.00
2023-02-16T11:20:44.998Z,8.00
2023-02-16T11:23:24.807Z,7.90
2023-02-16T11:26:03.645Z,7.90
2023-02-16T11:28:39.303Z,7.80
2023-02-16T11:31:39.582Z,7.80
2023-02-16T11:34:37.083Z,7.80
2023-02-16T11:37:12.765Z,7.90
2023-02-16T11:39:48.430Z,8.00
2023-02-16T11:42:37.740Z,8.00
2023-02-16T11:45:07.512Z,8.10
2023-02-16T11:47:42.069Z,8.00
2023-02-16T11:50:31.509Z,8.00
2023-02-16T11:53:26.019Z,8.00
2023-02-16T11:56:17.206Z,8.10
2023-02-16T11:59:02.991Z,8.20
2023-02-16T12:02:00.907Z,8.30
2023-02-16T12:04:41.335Z,8.40
2023-02-16T12:07:27.718Z,8.40
2023-02-16T12:10:19.025Z,8.60
2023-02-16T12:13:04.074Z,8.80
2023-02-16T12:15:55.541Z,9.00
2023-02-16T12:19:11.226Z,9.10
2023-02-16T12:22:28.755Z,9.20
2023-02-16T12:25:22.465Z,9.50
2023-02-16T12:28:01.686Z,9.50
2023-02-16T12:31:00.267Z,9.60
2023-02-16T12:33:47.949Z,9.70
2023-02-16T12:36:29.052Z,9.70
2023-02-16T12:39:23.983Z,9.80
2023-02-16T12:42:14.404Z,9.80
2023-02-16T12:44:48.749Z,9.80
2023-02-16T12:47:30.063Z,9.90
2023-02-16T12:50:03.835Z,10.10
2023-02-16T12:52:57.885Z,10.10
2023-02-16T12:55:59.169Z,10.00
2023-02-16T12:58:43.915Z,9.90
2023-02-16T13:01:23.570Z,10.00
2023-02-16T13:04:21.826Z,10.10
2023-02-16T13:07:18.136Z,10.20
2023-02-16T13:10:11.546Z,10.30
2023-02-16T13:13:21.186Z,10.50
2023-02-16T13:15:58.660Z,10.70
2023-02-16T13:18:40.316Z,10.70
2023-02-16T13:25:23.018Z,11.00
2023-02-16T13:25:46.453Z,10.90
2023-02-16T13:28:26.060Z,11.10
2023-02-16T13:31:26.167Z,11.10
2023-02-16T13:34:42.545Z,11.10
2023-02-16T13:37:24.562Z,11.20
2023-02-16T13:40:19.496Z,11.30
2023-02-16T13:43:12.544Z,11.40
2023-02-16T13:45:44.360Z,11.30
2023-02-16T13:48:37.666Z,11.40
2023-02-16T13:51:16.761Z,11.40
2023-02-16T13:53:52.839Z,11.50
2023-02-16T13:56:29.498Z,11.50
2023-02-16T13:59:00.128Z,11.60
2023-02-16T14:01:38.834Z,11.70
2023-02-16T14:04:33.796Z,11.70
2023-02-16T14:07:04.017Z,11.80
2023-02-16T14:09:45.940Z,11.90
2023-02-16T14:12:17.151Z,11.90
2023-02-16T14:14:56.613Z,11.70
2023-02-16T14:17:28.783Z,11.70
2023-02-16T14:20:25.170Z,11.80
2023-02-16T14:23:00.181Z,11.80
2023-02-16T14:25:30.909Z,11.80
2023-02-16T14:28:02.989Z,11.90
2023-02-16T14:30:50.057Z,11.90
2023-02-16T14:33:31.609Z,11.80
2023-02-16T14:35:58.674Z,11.80
2023-02-16T14:38:45.873Z,11.80
2023-02-16T14:41:36.893Z,11.70
2023-02-16T14:44:07.059Z,11.70
2023-02-16T14:46:42.877Z,11.70
2023-02-16T14:50:06.582Z,11.80
2023-02-16T14:53:48.390Z,11.80
2023-02-16T14:56:42.939Z,11.80
2023-02-16T14:59:27.739Z,11.80
2023-02-16T15:01:55.849Z,11.90
2023-02-16T15:04:31.865Z,11.90
2023-02-16T15:07:05.366Z,11.90
2023-02-16T15:09:34.941Z,12.00
2023-02-16T15:12:22.461Z,12.10
2023-02-16T15:14:50.536Z,12.10
2023-02-16T15:17:29.020Z,12.10
2023-02-16T15:20:04.149Z,12.00
2023-02-16T15:22:31.803Z,12.00
2023-02-16T15:25:24.560Z,11.90
2023-02-16T15:27:59.183Z,11.90
2023-02-16T15:30:35.947Z,12.00
2023-02-16T15:33:25.725Z,12.00
2023-02-16T15:36:13.394Z,12.00
2023-02-16T15:38:54.930Z,12.00
2023-02-16T15:41:39.022Z,11.90
2023-02-16T15:44:36.793Z,11.90
2023-02-16T15:47:14.946Z,11.90
2023-02-16T15:49:43.679Z,11.80
2023-02-16T15:52:34.891Z,11.80
2023-02-16T15:55:06.089Z,11.90
2023-02-16T15:57:38.090Z,11.80
2023-02-16T16:00:21.350Z,11.70
2023-02-16T16:02:58.410Z,11.70
2023-02-16T16:05:35.522Z,11.70
2023-02-16T16:08:03.569Z,11.60
2023-02-16T16:10:36.458Z,11.60
2023-02-16T16:13:19.068Z,11.60
2023-02-16T16:15:50.201Z,11.50
2023-02-16T16:18:43.936Z,11.50
2023-02-16T16:21:34.062Z,11.50
2023-02-16T16:24:02.333Z,11.40
2023-02-16T16:26:35.999Z,11.40
2023-02-16T16:29:04.504Z,11.40
2023-02-16T16:31:38.662Z,11.30
2023-02-16T16:34:10.256Z,11.30
2023-02-16T16:36:56.027Z,11.20
2023-02-16T16:39:33.054Z,11.10
2023-02-16T16:42:00.358Z,11.00
2023-02-16T16:44:41.996Z,10.90
2023-02-16T16:47:30.516Z,10.80
2023-02-16T16:50:09.403Z,10.70
2023-02-16T16:52:43.042Z,10.60
2023-02-16T16:55:19.330Z,10.50
2023-02-16T16:57:51.928Z,10.40
2023-02-16T17:00:21.115Z,10.40
2023-02-16T17:02:48.780Z,10.30
2023-02-16T17:05:16.451Z,10.30
2023-02-16T17:07:43.841Z,10.30
2023-02-16T17:10:11.134Z,10.20
2023-02-16T17:12:38.638Z,10.20
2023-02-16T17:15:08.072Z,10.10
2023-02-16T17:17:35.596Z,10.10
2023-02-16T17:20:02.642Z,10.10
2023-02-16T17:22:29.772Z,10.00
2023-02-16T17:24:59.089Z,10.00
2023-02-16T17:27:26.214Z,10.00
2023-02-16T17:29:53.421Z,9.90
2023-02-16T17:32:23.608Z,9.90
2023-02-16T17:34:52.496Z,9.90
2023-02-16T17:37:19.918Z,9.90
2023-02-16T17:39:47.282Z,9.90
2023-02-16T17:42:14.715Z,9.90
2023-02-16T17:44:41.912Z,9.90
2023-02-16T17:47:15.548Z,9.90
2023-02-16T17:49:42.801Z,9.80
2023-02-16T17:52:11.850Z,9.80
2023-02-16T17:54:39.611Z,9.80
2023-02-16T17:57:06.848Z,9.80
2023-02-16T17:59:34.283Z,9.80
2023-02-16T18:02:01.906Z,9.80
2023-02-16T18:04:29.253Z,9.80
2023-02-16T18:06:56.734Z,9.80
2023-02-16T18:09:24.680Z,9.80
2023-02-16T18:11:52.048Z,9.80
2023-02-16T18:14:19.515Z,9.80
2023-02-16T18:16:52.211Z,9.80
2023-02-16T18:19:20.044Z,9.80
2023-02-16T18:21:47.135Z,9.80
2023-02-16T18:24:14.201Z,9.80
2023-02-16T18:26:41.244Z,9.80
2023-02-16T18:29:09.863Z,9.80
2023-02-16T18:31:37.796Z,9.80
2023-02-16T18:34:06.043Z,9.80
2023-02-16T18:36:35.785Z,9.90
2023-02-16T18:39:04.525Z,9.90
2023-02-16T18:41:33.900Z,9.80
2023-02-16T18:44:01.538Z,9.80
2023-02-16T18:46:28.853Z,9.90
2023-02-16T18:48:57.288Z,9.90
2023-02-16T18:51:28.949Z,9.90
2023-02-16T18:53:57.872Z,9.90
2023-02-16T18:56:25.773Z,9.90
2023-02-16T18:58:53.368Z,9.90
2023-02-16T19:01:33.335Z,9.90
2023-02-16T19:04:02.426Z,9.90
2023-02-16T19:06:29.858Z,9.90
2023-02-16T19:08:58.986Z,9.90
2023-02-16T19:11:28.230Z,9.90
2023-02-16T19:13:55.297Z,9.90
2023-02-16T19:16:22.811Z,9.90
2023-02-16T19:18:50.551Z,9.90
2023-02-16T19:21:17.727Z,9.80
2023-02-16T19:23:45.585Z,9.90
2023-02-16T19:26:19.496Z,9.90
2023-02-16T19:28:47.314Z,9.90
2023-02-16T19:31:26.628Z,9.90
2023-02-16T19:33:54.344Z,9.80
2023-02-16T19:36:23.429Z,9.80
2023-02-16T19:38:53.393Z,9.70
2023-02-16T19:41:38.093Z,9.70
2023-02-16T19:44:05.698Z,9.70
2023-02-16T19:46:34.519Z,9.70
2023-02-16T19:49:02.300Z,9.70
2023-02-16T19:51:30.183Z,9.60
2023-02-16T19:53:58.338Z,9.60
2023-02-16T19:56:27.197Z,9.60
2023-02-16T19:58:56.975Z,9.60
2023-02-16T20:01:27.361Z,9.50
2023-02-16T20:03:56.616Z,9.60
2023-02-16T20:06:29.768Z,9.50
2023-02-16T20:08:57.548Z,9.50
2023-02-16T20:11:28.157Z,9.50
2023-02-16T20:13:56.602Z,9.40
2023-02-16T20:16:24.424Z,9.50
2023-02-16T20:18:51.872Z,9.40
2023-02-16T20:21:23.369Z,9.50
2023-02-16T20:23:53.913Z,9.50
2023-02-16T20:26:25.579Z,9.50
2023-02-16T20:28:52.753Z,9.50
2023-02-16T20:31:44.731Z,9.40
2023-02-16T20:34:11.971Z,9.50
2023-02-16T20:36:39.414Z,9.50
2023-02-16T20:39:08.311Z,9.50
2023-02-16T20:41:36.096Z,9.40
2023-02-16T20:44:04.546Z,9.50
2023-02-16T20:46:31.702Z,9.50
2023-02-16T20:48:58.835Z,9.50
2023-02-16T20:51:26.300Z,9.50
2023-02-16T20:53:53.579Z,9.50
2023-02-16T20:56:26.002Z,9.50
2023-02-16T20:58:58.927Z,9.50
2023-02-16T21:01:39.455Z,9.60
2023-02-16T21:04:08.294Z,9.60
2023-02-16T21:06:36.978Z,9.60
2023-02-16T21:09:07.558Z,9.60
2023-02-16T21:11:37.180Z,9.60
2023-02-16T21:14:06.277Z,9.70
2023-02-16T21:16:34.158Z,9.70
2023-02-16T21:19:02.077Z,9.80
2023-02-16T21:21:30.086Z,9.80
2023-02-16T21:23:57.213Z,9.80
2023-02-16T21:26:25.487Z,9.80
2023-02-16T21:28:53.259Z,9.90
2023-02-16T21:31:24.137Z,9.90
2023-02-16T21:33:52.909Z,9.90
2023-02-16T21:36:25.961Z,10.00
2023-02-16T21:38:53.610Z,10.00
2023-02-16T21:41:29.089Z,10.00
2023-02-16T21:44:07.028Z,10.10
2023-02-16T21:46:40.960Z,10.10
2023-02-16T21:49:17.336Z,10.10
2023-02-16T21:51:46.744Z,10.10
2023-02-16T21:54:17.316Z,10.20
2023-02-16T21:56:50.343Z,10.20
2023-02-16T21:59:19.993Z,10.20
2023-02-16T22:01:53.309Z,10.20
2023-02-16T22:04:22.750Z,10.20
2023-02-16T22:06:51.336Z,10.20
2023-02-16T22:09:22.532Z,10.20
2023-02-16T22:11:50.361Z,10.30
2023-02-16T22:14:17.422Z,10.30
2023-02-16T22:16:46.766Z,10.20
2023-02-16T22:19:17.592Z,10.30
2023-02-16T22:21:47.774Z,10.30
2023-02-16T22:24:17.905Z,10.30
2023-02-16T22:26:49.671Z,10.30
2023-02-16T22:29:18.001Z,10.30
2023-02-16T22:31:49.884Z,10.30
2023-02-16T22:34:21.259Z,10.40
2023-02-16T22:36:49.256Z,10.40
2023-02-16T22:39:18.164Z,10.40
2023-02-16T22:41:45.397Z,10.30
2023-02-16T22:44:12.995Z,10.30
2023-02-16T22:46:40.405Z,10.30
2023-02-16T22:49:09.061Z,10.30
2023-02-16T22:51:37.704Z,10.30
2023-02-16T22:54:06.226Z,10.30
2023-02-16T22:56:34.828Z,10.30
2023-02-16T22:59:02.003Z,10.30
2023-02-16T23:01:30.536Z,10.20
2023-02-16T23:04:00.733Z,10.30
2023-02-16T23:06:32.517Z,10.30
2023-02-16T23:09:06.321Z,10.30
2023-02-16T23:11:35.647Z,10.30
2023-02-16T23:14:02.716Z,10.30
2023-02-16T23:16:30.129Z,10.20
2023-02-16T23:18:59.537Z,10.20
2023-02-16T23:21:32.667Z,10.20
2023-02-16T23:24:00.273Z,10.20
2023-02-16T23:26:31.015Z,10.20
2023-02-16T23:29:02.148Z,10.20
2023-02-16T23:31:35.783Z,10.20
2023-02-16T23:34:05.129Z,10.20
2023-02-16T23:36:35.648Z,10.20
2023-02-16T23:39:23.692Z,10.20
2023-02-16T23:41:51.023Z,10.20
2023-02-16T23:44:19.487Z,10.30
2023-02-16T23:46:46.841Z,10.30
2023-02-16T23:49:14.261Z,10.30
2023-02-16T23:51:41.440Z,10.30
2023-02-16T23:54:10.940Z,10.30
2023-02-16T23:56:39.607Z,10.30
2023-02-16T23:59:06.776Z,10.30
